Time;durP1;ratioP1;P1;durP2;ratioP2;P2;SDS_P1;SDS_P2;PMS_P1;PMS_P2;Temp;Humidity;BMP_temperature;BMP_pressure;BME280_temperature;BME280_humidity;BME280_pressure;Samples;Min_cycle;Max_cycle;Signal;HPM_P1;HPM_P2
2021/06/29 00:00:33;;;;;;;7.67;7.07;;;24.40;99.10;;;;;;5013684;28;20445;-81
2021/06/29 00:03:02;;;;;;;7.20;6.70;;;24.20;99.60;;;;;;4993197;28;21056;-83
2021/06/29 00:05:30;;;;;;;6.73;6.13;;;24.00;99.90;;;;;;4961901;28;20475;-82
2021/06/29 00:07:57;;;;;;;7.40;6.70;;;24.00;99.90;;;;;;4977937;28;20456;-83
2021/06/29 00:10:28;;;;;;;7.20;6.50;;;23.90;99.90;;;;;;4977683;28;20504;-83
2021/06/29 00:12:56;;;;;;;5.90;5.50;;;23.70;99.90;;;;;;4992299;28;20462;-81
2021/06/29 00:15:25;;;;;;;7.13;6.43;;;23.80;99.90;;;;;;5005388;28;20495;-82
2021/06/29 00:17:53;;;;;;;7.40;6.67;;;23.90;99.90;;;;;;5007818;28;20442;-82
2021/06/29 00:20:20;;;;;;;6.43;5.83;;;23.70;99.90;;;;;;5016522;28;20440;-83
2021/06/29 00:22:46;;;;;;;6.17;5.77;;;23.40;99.90;;;;;;5016430;28;20570;-83
2021/06/29 00:25:14;;;;;;;6.80;6.20;;;23.30;99.90;;;;;;4999762;28;20462;-83
2021/06/29 00:27:41;;;;;;;6.87;6.23;;;23.30;99.90;;;;;;5017195;28;20471;-84
2021/06/29 00:30:09;;;;;;;6.30;5.80;;;23.30;99.90;;;;;;5015131;28;20466;-84
2021/06/29 00:32:35;;;;;;;6.67;5.57;;;23.30;99.90;;;;;;4983484;28;20515;-85
2021/06/29 00:35:04;;;;;;;6.40;5.90;;;23.60;99.90;;;;;;4984147;28;20860;-84
2021/06/29 00:37:31;;;;;;;6.50;5.97;;;23.80;99.90;;;;;;4996768;28;20454;-83
2021/06/29 00:39:57;;;;;;;6.40;5.80;;;23.70;99.90;;;;;;4984498;28;20451;-83
2021/06/29 00:42:24;;;;;;;5.70;5.20;;;23.80;99.90;;;;;;5001003;28;20491;-85
2021/06/29 00:44:51;;;;;;;6.73;6.17;;;23.60;99.90;;;;;;5000389;28;20474;-83
2021/06/29 00:47:17;;;;;;;7.03;6.33;;;23.40;99.90;;;;;;5004871;28;20478;-83
2021/06/29 00:49:44;;;;;;;6.73;6.23;;;23.30;99.90;;;;;;4997511;28;20700;-83
2021/06/29 00:52:14;;;;;;;6.70;6.13;;;23.30;99.90;;;;;;4978152;28;20455;-83
2021/06/29 00:54:41;;;;;;;7.10;6.40;;;23.30;99.90;;;;;;4988833;28;20976;-83
2021/06/29 00:57:09;;;;;;;6.93;6.33;;;23.30;99.90;;;;;;4993739;28;20556;-83
2021/06/29 00:59:41;;;;;;;7.17;6.57;;;23.60;99.90;;;;;;4996631;28;20451;-83
2021/06/29 01:02:08;;;;;;;6.00;5.50;;;23.40;99.90;;;;;;4981177;28;20485;-83
2021/06/29 01:04:37;;;;;;;6.13;5.63;;;23.50;99.90;;;;;;4980545;28;21000;-83
2021/06/29 01:07:06;;;;;;;6.70;5.93;;;23.50;99.90;;;;;;4981380;28;20985;-84
2021/06/29 01:09:33;;;;;;;5.20;4.70;;;23.30;99.90;;;;;;4980280;28;20443;-83
2021/06/29 01:12:00;;;;;;;4.53;4.23;;;23.30;99.90;;;;;;4983913;28;20573;-83
2021/06/29 01:14:27;;;;;;;4.50;4.10;;;23.30;99.80;;;;;;4988493;28;20467;-81
2021/06/29 01:16:54;;;;;;;4.07;3.70;;;23.30;99.40;;;;;;4987775;28;20454;-83
2021/06/29 01:19:22;;;;;;;3.77;3.47;;;23.30;99.20;;;;;;5001326;28;20454;-82
2021/06/29 01:21:51;;;;;;;3.87;3.57;;;23.20;99.10;;;;;;5020911;28;20479;-83
2021/06/29 01:24:27;;;;;;;4.40;3.37;;;23.20;98.90;;;;;;5001347;28;20477;-83
2021/06/29 01:27:16;;;;;;;3.73;3.43;;;23.10;98.90;;;;;;5001648;28;20463;-82
2021/06/29 01:32:23;;;;;;;3.93;3.63;;;23.20;98.70;;;;;;4999301;28;20475;-82
2021/06/29 01:34:49;;;;;;;3.80;3.50;;;23.30;98.70;;;;;;4976068;28;20562;-81
2021/06/29 01:37:18;;;;;;;5.40;3.90;;;23.40;98.50;;;;;;4982252;28;20466;-82
2021/06/29 01:40:00;;;;;;;3.60;3.30;;;23.20;99.10;;;;;;4980927;28;20451;-85
2021/06/29 01:42:26;;;;;;;4.13;3.90;;;23.20;98.90;;;;;;4969401;28;20487;-82
2021/06/29 01:44:53;;;;;;;3.50;3.20;;;23.10;99.50;;;;;;4992804;28;20466;-89
2021/06/29 01:47:31;;;;;;;3.83;3.53;;;23.00;99.90;;;;;;5001792;28;20459;-82
2021/06/29 01:50:15;;;;;;;4.27;3.97;;;22.90;99.90;;;;;;5001551;28;20476;-85
2021/06/29 01:52:42;;;;;;;4.53;4.23;;;23.10;99.60;;;;;;4984210;28;20444;-84
2021/06/29 01:55:09;;;;;;;4.80;4.30;;;23.00;99.90;;;;;;4987638;28;20478;-89
2021/06/29 01:57:47;;;;;;;5.07;4.53;;;22.90;99.90;;;;;;4997468;28;20446;-88
2021/06/29 02:00:46;;;;;;;4.67;4.27;;;22.90;99.90;;;;;;4991749;28;20524;-86
2021/06/29 02:03:22;;;;;;;5.63;4.40;;;22.90;99.90;;;;;;4981618;28;20808;-91
2021/06/29 02:05:58;;;;;;;9.20;4.40;;;22.90;99.90;;;;;;5005041;28;20920;-87
2021/06/29 02:08:29;;;;;;;4.70;3.80;;;22.80;99.90;;;;;;5003320;28;20458;-86
2021/06/29 02:10:57;;;;;;;6.87;4.70;;;22.80;99.90;;;;;;4983448;28;20529;-87
2021/06/29 02:13:26;;;;;;;4.80;4.40;;;22.80;99.90;;;;;;5001644;28;20511;-87
2021/06/29 02:15:56;;;;;;;4.67;4.10;;;22.70;99.90;;;;;;5000851;28;20466;-85
2021/06/29 02:18:27;;;;;;;5.20;4.30;;;22.90;99.90;;;;;;4980837;28;20478;-85
2021/06/29 02:21:01;;;;;;;5.03;4.10;;;23.30;99.90;;;;;;4982611;28;20451;-90
2021/06/29 02:23:56;;;;;;;;;;;;;;;;;;;;;
2021/06/29 02:26:43;;;;;;;4.43;3.90;;;23.00;99.90;;;;;;5005066;28;20500;-90
2021/06/29 02:29:10;;;;;;;5.07;4.57;;;22.80;99.90;;;;;;5003062;28;20526;-85
2021/06/29 02:31:37;;;;;;;4.47;4.07;;;22.80;99.90;;;;;;4989699;28;20447;-89
2021/06/29 02:34:04;;;;;;;6.17;3.90;;;22.80;99.90;;;;;;4986916;28;20493;-83
2021/06/29 02:36:31;;;;;;;4.87;4.03;;;22.80;99.90;;;;;;4990708;28;21986;-86
2021/06/29 02:38:58;;;;;;;5.60;4.30;;;22.70;99.90;;;;;;4988447;28;20461;-84
2021/06/29 02:41:25;;;;;;;4.70;4.30;;;22.60;99.90;;;;;;4988086;28;20449;-90
2021/06/29 02:43:51;;;;;;;5.80;4.03;;;22.50;99.90;;;;;;5005067;28;20608;-83
2021/06/29 02:46:18;;;;;;;5.57;5.07;;;22.50;99.90;;;;;;5005118;28;20449;-84
2021/06/29 02:48:45;;;;;;;4.87;3.83;;;22.30;99.90;;;;;;5004506;28;20465;-88
2021/06/29 02:51:13;;;;;;;3.80;3.40;;;22.10;99.90;;;;;;4988204;28;20451;-85
2021/06/29 02:53:40;;;;;;;5.40;4.33;;;22.00;99.90;;;;;;4999246;28;20537;-87
2021/06/29 02:56:36;;;;;;;5.53;5.00;;;22.00;99.90;;;;;;4983819;28;20468;-83
2021/06/29 02:58:53;;;;;;;6.13;5.20;;;22.20;99.90;;;;;;5000606;28;20473;-88
2021/06/29 03:01:20;;;;;;;5.00;4.60;;;22.10;99.90;;;;;;4983955;28;20469;-86
2021/06/29 03:03:47;;;;;;;5.90;5.30;;;22.00;99.90;;;;;;4982039;28;20493;-90
2021/06/29 03:06:14;;;;;;;4.97;4.23;;;21.90;99.90;;;;;;4988584;28;20455;-87
2021/06/29 03:08:41;;;;;;;4.90;4.40;;;21.90;99.90;;;;;;4985029;28;20458;-89
2021/06/29 03:11:07;;;;;;;6.20;4.10;;;21.80;99.90;;;;;;5003985;28;20446;-84
2021/06/29 03:13:34;;;;;;;4.50;4.07;;;21.80;99.90;;;;;;4984160;28;20455;-88
2021/06/29 03:16:00;;;;;;;3.90;3.60;;;21.80;99.90;;;;;;4985857;28;20917;-86
2021/06/29 03:18:27;;;;;;;4.43;4.03;;;22.00;99.90;;;;;;5000779;28;20542;-86
2021/06/29 03:21:16;;;;;;;4.10;3.80;;;22.30;99.90;;;;;;4999768;28;20641;-89
2021/06/29 03:23:43;;;;;;;5.50;4.10;;;22.30;99.90;;;;;;5002260;28;20489;-84
2021/06/29 03:27:14;;;;;;;4.70;3.30;;;22.00;99.90;;;;;;4983531;28;20463;-83
2021/06/29 03:29:40;;;;;;;5.93;3.40;;;21.80;99.90;;;;;;4982690;28;20560;-84
2021/06/29 03:32:08;;;;;;;4.07;3.67;;;21.60;99.90;;;;;;4984973;28;20447;-85
2021/06/29 03:34:38;;;;;;;5.20;3.50;;;21.60;99.90;;;;;;4982356;28;20481;-83
2021/06/29 03:37:09;;;;;;;5.17;4.57;;;21.50;99.90;;;;;;4985751;28;20462;-85
2021/06/29 03:39:36;;;;;;;4.00;3.60;;;21.60;99.90;;;;;;5003327;28;20454;-89
2021/06/29 03:42:04;;;;;;;4.40;4.00;;;21.50;99.90;;;;;;4983357;28;20561;-83
2021/06/29 03:44:57;;;;;;;5.50;3.03;;;21.50;99.90;;;;;;4985880;28;20501;-85
2021/06/29 03:47:29;;;;;;;4.57;3.00;;;21.50;99.90;;;;;;5000366;28;20451;-85
2021/06/29 03:50:00;;;;;;;3.47;3.17;;;21.50;99.90;;;;;;5002245;28;20455;-85
2021/06/29 03:52:34;;;;;;;3.30;3.00;;;21.40;99.90;;;;;;4980563;28;20455;-82
2021/06/29 03:55:29;;;;;;;3.20;2.90;;;21.50;99.90;;;;;;4975086;28;20478;-83
2021/06/29 03:58:22;;;;;;;3.23;3.03;;;21.50;99.90;;;;;;4978913;28;20576;-81
2021/06/29 04:01:24;;;;;;;7.47;3.43;;;21.80;99.90;;;;;;4947615;28;20494;-86
2021/06/29 04:04:23;;;;;;;5.30;2.93;;;21.70;99.90;;;;;;4982882;28;20486;-87
2021/06/29 04:07:27;;;;;;;5.37;3.80;;;21.60;99.90;;;;;;4975345;28;20463;-86
2021/06/29 04:10:20;;;;;;;5.80;3.57;;;21.90;99.90;;;;;;4886334;29;20598;-84
2021/06/29 04:13:12;;;;;;;5.03;3.53;;;21.90;99.90;;;;;;4914055;29;20461;-85
2021/06/29 04:16:13;;;;;;;6.47;3.93;;;21.70;99.90;;;;;;4914928;29;20482;-86
2021/06/29 04:18:41;;;;;;;4.63;3.60;;;21.90;99.90;;;;;;4915989;29;20454;-85
2021/06/29 04:21:08;;;;;;;4.50;3.67;;;21.90;99.90;;;;;;4914292;29;20445;-85
2021/06/29 04:23:38;;;;;;;6.40;3.67;;;22.00;99.90;;;;;;4912508;29;20487;-85
2021/06/29 04:26:05;;;;;;;9.00;3.10;;;21.80;99.90;;;;;;4914480;29;20589;-85
2021/06/29 04:28:32;;;;;;;3.63;3.20;;;21.60;99.90;;;;;;4915630;29;20458;-84
2021/06/29 04:30:59;;;;;;;4.80;4.00;;;21.50;99.90;;;;;;4915347;29;20445;-84
2021/06/29 04:33:26;;;;;;;4.20;3.80;;;21.40;99.90;;;;;;4898286;29;20489;-85
2021/06/29 04:35:53;;;;;;;4.70;3.83;;;21.40;99.90;;;;;;4902340;29;20966;-85
2021/06/29 04:38:20;;;;;;;7.37;4.23;;;21.40;99.90;;;;;;4901538;29;20463;-85
2021/06/29 04:40:52;;;;;;;6.10;4.20;;;21.40;99.90;;;;;;4896813;29;20553;-85
2021/06/29 04:43:20;;;;;;;4.50;3.80;;;21.50;99.90;;;;;;4895063;29;20478;-84
2021/06/29 04:45:47;;;;;;;4.70;4.30;;;21.50;99.90;;;;;;4897137;28;21735;-85
2021/06/29 04:48:13;;;;;;;5.87;3.73;;;21.50;99.90;;;;;;4987769;28;20458;-84
2021/06/29 04:50:42;;;;;;;6.80;3.57;;;21.60;99.90;;;;;;4988179;28;20478;-86
2021/06/29 04:53:22;;;;;;;5.10;4.20;;;21.60;99.90;;;;;;4971716;28;20467;-84
2021/06/29 04:55:49;;;;;;;6.43;4.23;;;21.60;99.90;;;;;;4987118;28;20529;-85
2021/06/29 04:58:51;;;;;;;;;;;;;;;;;;;;;
2021/06/29 05:01:42;;;;;;;7.50;3.90;;;21.60;99.90;;;;;;4988480;28;20437;-85
2021/06/29 05:04:13;;;;;;;5.37;3.80;;;21.60;99.90;;;;;;4966106;28;20954;-86
2021/06/29 05:06:40;;;;;;;6.30;3.90;;;21.60;99.90;;;;;;4976988;28;20505;-85
2021/06/29 05:09:23;;;;;;;6.27;3.80;;;21.60;99.90;;;;;;4998281;28;20467;-86
2021/06/29 05:12:11;;;;;;;5.63;4.17;;;21.50;99.90;;;;;;4919479;29;20575;-85
2021/06/29 05:14:38;;;;;;;7.00;4.27;;;21.60;99.90;;;;;;4914802;29;20515;-84
2021/06/29 05:17:05;;;;;;;7.00;4.07;;;21.60;99.90;;;;;;4929488;29;21046;-84
2021/06/29 05:20:44;;;;;;;;;;;;;;;;;;;;;
2021/06/29 05:23:09;;;;;;;3.27;2.80;;;21.60;99.90;;;;;;4874504;29;20485;-85
2021/06/29 05:25:54;;;;;;;2.80;2.20;;;21.80;99.90;;;;;;4910128;29;20478;-84
2021/06/29 05:29:08;;;;;;;;;;;;;;;;;;;;;
2021/06/29 05:35:45;;;;;;;5.47;3.30;;;22.00;99.90;;;;;;5049019;23;21024;-88
2021/06/29 05:38:18;;;;;;;4.57;3.83;;;22.40;99.90;;;;;;5040528;28;20473;-84
2021/06/29 05:51:52;;;;;;;4.13;2.20;;;22.20;99.90;;;;;;4822537;29;20576;-84
2021/06/29 05:54:26;;;;;;;3.30;2.30;;;22.00;99.90;;;;;;4890847;29;20463;-85
2021/06/29 05:57:22;;;;;;;6.20;5.60;;;22.00;99.90;;;;;;4890327;29;20527;-84
2021/06/29 06:00:40;;;;;;;;;;;;;;;;;;;;;
2021/06/29 06:03:26;;;;;;;2.37;2.20;;;22.30;99.90;;;;;;4880737;29;20715;-85
2021/06/29 06:06:19;;;;;;;5.50;2.43;;;22.20;99.90;;;;;;4888192;29;20459;-85
2021/06/29 06:08:50;;;;;;;3.37;3.07;;;22.10;99.90;;;;;;4875332;29;20458;-88
2021/06/29 06:11:34;;;;;;;3.47;3.00;;;22.50;99.90;;;;;;4909663;29;20523;-88
2021/06/29 06:14:20;;;;;;;3.70;3.30;;;22.80;99.90;;;;;;4898399;29;20474;-87
2021/06/29 06:16:58;;;;;;;4.80;3.23;;;22.80;99.90;;;;;;4899425;29;20447;-87
2021/06/29 06:19:54;;;;;;;4.03;3.40;;;22.60;99.90;;;;;;4914518;29;20447;-87
2021/06/29 06:26:06;;;;;;;3.87;3.47;;;22.40;99.90;;;;;;4987973;28;20957;-86
2021/06/29 06:28:52;;;;;;;3.97;3.50;;;22.30;99.90;;;;;;5006601;28;20445;-87
2021/06/29 06:31:25;;;;;;;3.83;3.00;;;22.30;99.90;;;;;;5008420;28;20456;-86
2021/06/29 06:37:24;;;;;;;5.80;2.90;;;22.20;99.90;;;;;;5057924;28;20662;-85
2021/06/29 06:39:51;;;;;;;3.30;3.00;;;22.20;99.90;;;;;;5051928;28;20551;-86
2021/06/29 06:42:42;;;;;;;5.20;3.50;;;22.30;99.90;;;;;;5050579;28;20510;-86
2021/06/29 06:46:30;;;;;;;3.60;3.30;;;22.30;99.90;;;;;;4974999;28;20490;-87
2021/06/29 06:53:55;;;;;;;2.73;2.50;;;22.10;99.90;;;;;;4852392;29;20552;-86
2021/06/29 07:00:26;;;;;;;;;;;;;;;;;;;;;
2021/06/29 07:03:12;;;;;;;2.20;2.10;;;22.30;99.90;;;;;;4803988;29;20518;-86
2021/06/29 07:05:39;;;;;;;3.13;2.03;;;22.30;99.80;;;;;;4927752;28;20760;-85
2021/06/29 07:08:06;;;;;;;2.43;2.23;;;22.30;99.90;;;;;;4931591;28;20459;-86
2021/06/29 07:11:11;;;;;;;2.30;2.03;;;22.20;99.80;;;;;;4930931;28;20570;-88
2021/06/29 07:14:01;;;;;;;2.43;2.23;;;22.30;99.90;;;;;;4976023;28;20473;-86
2021/06/29 07:17:03;;;;;;;2.50;2.30;;;22.40;99.60;;;;;;5013230;28;20464;-85
2021/06/29 07:19:59;;;;;;;1.80;1.70;;;22.30;99.50;;;;;;5009550;28;20464;-86
2021/06/29 07:23:16;;;;;;;2.50;1.90;;;22.50;99.60;;;;;;5015167;28;20496;-86
2021/06/29 07:29:36;;;;;;;4.30;2.10;;;22.80;99.20;;;;;;5031704;28;20448;-85
2021/06/29 07:32:20;;;;;;;2.10;1.90;;;23.00;98.70;;;;;;5020902;28;20430;-85
2021/06/29 07:34:55;;;;;;;3.17;1.70;;;23.00;97.70;;;;;;5035117;28;20868;-85
2021/06/29 07:37:28;;;;;;;2.00;1.80;;;23.00;97.50;;;;;;5047291;28;21106;-87
2021/06/29 07:40:19;;;;;;;1.77;1.67;;;23.10;97.40;;;;;;5056678;28;20553;-85
2021/06/29 07:42:47;;;;;;;2.30;1.57;;;23.10;97.20;;;;;;5056165;28;20451;-86
2021/06/29 07:45:17;;;;;;;3.20;2.07;;;23.30;97.00;;;;;;5053267;28;20511;-86
2021/06/29 07:47:44;;;;;;;2.00;1.80;;;23.30;96.50;;;;;;5056371;28;20917;-85
2021/06/29 07:50:11;;;;;;;2.97;2.23;;;23.20;96.50;;;;;;5052825;28;20921;-86
2021/06/29 07:52:38;;;;;;;1.73;1.63;;;23.40;96.60;;;;;;5049026;28;20763;-86
2021/06/29 07:55:06;;;;;;;2.50;2.30;;;23.50;96.40;;;;;;5052017;28;21219;-86
2021/06/29 07:57:33;;;;;;;1.63;1.53;;;23.80;95.70;;;;;;5052411;28;20472;-86
2021/06/29 08:00:23;;;;;;;3.90;1.90;;;23.90;95.10;;;;;;5051209;28;20466;-87
2021/06/29 08:03:04;;;;;;;2.10;1.90;;;23.70;95.10;;;;;;5051009;28;20467;-86
2021/06/29 08:05:41;;;;;;;2.20;1.57;;;23.60;95.50;;;;;;5053287;28;20468;-86
2021/06/29 08:08:33;;;;;;;2.43;1.37;;;23.70;95.40;;;;;;5051317;28;21551;-87
2021/06/29 08:11:35;;;;;;;2.47;2.03;;;23.70;95.20;;;;;;5049773;28;21046;-87
2021/06/29 08:14:05;;;;;;;6.93;2.30;;;23.70;95.20;;;;;;5044922;28;20479;-86
2021/06/29 08:16:32;;;;;;;3.93;1.50;;;23.60;95.30;;;;;;5048356;28;20459;-87
2021/06/29 08:19:18;;;;;;;3.73;1.77;;;23.60;95.30;;;;;;5047067;28;20491;-86
2021/06/29 08:22:00;;;;;;;5.53;2.20;;;23.80;95.20;;;;;;5044007;28;20506;-87
2021/06/29 08:24:27;;;;;;;2.27;1.93;;;24.40;94.40;;;;;;5046664;28;20583;-86
2021/06/29 08:27:08;;;;;;;3.63;1.90;;;24.50;93.70;;;;;;5049666;28;20537;-87
2021/06/29 08:29:52;;;;;;;3.60;2.10;;;24.30;93.90;;;;;;5045619;28;20452;-86
2021/06/29 08:32:21;;;;;;;2.17;1.90;;;24.10;93.70;;;;;;5047897;28;20454;-86
2021/06/29 08:34:48;;;;;;;1.90;1.80;;;24.30;94.20;;;;;;5051324;28;20575;-87
2021/06/29 08:37:47;;;;;;;4.17;2.37;;;24.40;93.80;;;;;;5049448;28;20447;-86
2021/06/29 08:40:27;;;;;;;2.00;1.90;;;24.40;93.40;;;;;;5029570;28;20456;-84
2021/06/29 08:43:25;;;;;;;3.50;1.93;;;24.60;93.10;;;;;;5051616;28;20467;-85
2021/06/29 08:45:56;;;;;;;1.93;1.83;;;24.60;93.00;;;;;;5049967;28;20456;-85
2021/06/29 08:48:23;;;;;;;2.17;1.97;;;24.80;92.90;;;;;;5048973;28;20508;-85
2021/06/29 08:50:50;;;;;;;2.10;1.90;;;25.00;92.60;;;;;;5049989;28;20461;-84
2021/06/29 08:53:18;;;;;;;3.00;2.10;;;24.80;92.80;;;;;;5046872;28;21506;-84
2021/06/29 08:55:50;;;;;;;1.90;1.80;;;24.70;92.90;;;;;;5050080;28;20496;-84
2021/06/29 08:58:21;;;;;;;2.10;2.00;;;24.70;92.60;;;;;;5047246;28;20964;-85
2021/06/29 09:00:49;;;;;;;2.37;2.20;;;24.90;92.50;;;;;;5051073;28;20448;-86
2021/06/29 09:03:16;;;;;;;1.83;1.63;;;25.20;91.90;;;;;;5051690;28;20510;-85
2021/06/29 09:05:46;;;;;;;2.80;2.57;;;25.20;91.90;;;;;;5065346;28;20479;-86
2021/06/29 09:08:29;;;;;;;2.03;1.80;;;25.60;91.70;;;;;;5058783;28;20477;-85
2021/06/29 09:14:46;;;;;;;2.50;2.30;;;25.70;90.70;;;;;;5051407;28;20596;-88
2021/06/29 09:17:20;;;;;;;2.13;1.97;;;25.70;90.60;;;;;;5072980;28;20440;-86
2021/06/29 09:19:48;;;;;;;3.83;2.43;;;26.20;90.30;;;;;;5039031;28;20448;-85
2021/06/29 09:22:25;;;;;;;5.13;2.27;;;26.20;89.50;;;;;;5057205;28;20436;-85
2021/06/29 09:25:33;;;;;;;3.40;3.13;;;26.70;88.70;;;;;;5058704;28;20864;-85
2021/06/29 09:28:18;;;;;;;2.97;2.63;;;27.00;87.40;;;;;;4958145;28;20905;-86
2021/06/29 09:30:52;;;;;;;3.33;2.70;;;26.40;87.70;;;;;;5050095;28;20893;-85
2021/06/29 09:33:49;;;;;;;3.00;2.73;;;26.10;88.90;;;;;;5049597;28;20458;-86
2021/06/29 09:36:30;;;;;;;3.83;2.60;;;26.70;86.50;;;;;;5049931;28;20544;-86
2021/06/29 09:38:59;;;;;;;2.87;2.60;;;26.70;87.70;;;;;;5052632;28;20457;-84
2021/06/29 09:42:02;;;;;;;3.03;2.83;;;26.70;87.30;;;;;;5053889;28;20464;-85
2021/06/29 09:44:35;;;;;;;4.97;2.80;;;26.60;87.00;;;;;;5054945;28;20476;-86
2021/06/29 09:47:47;;;;;;;3.53;2.73;;;26.40;87.70;;;;;;5054807;28;20439;-85
2021/06/29 09:51:17;;;;;;;;;;;;;;;;;;;;;
2021/06/29 09:53:56;;;;;;;3.27;3.07;;;27.30;84.80;;;;;;5051571;28;21030;-85
2021/06/29 09:56:42;;;;;;;;;;;;;;;;;;;;;
2021/06/29 09:59:25;;;;;;;4.10;3.77;;;27.70;83.50;;;;;;5052320;28;20465;-86
2021/06/29 10:02:40;;;;;;;4.60;2.60;;;28.20;81.40;;;;;;5053805;28;20455;-84
2021/06/29 10:05:25;;;;;;;2.67;2.50;;;28.40;80.40;;;;;;5053533;28;20509;-85
2021/06/29 10:08:08;;;;;;;2.90;2.70;;;29.30;78.70;;;;;;4835076;28;10001020;-85
2021/06/29 10:10:40;;;;;;;3.00;2.80;;;29.70;74.80;;;;;;5057792;28;21241;-85
2021/06/29 10:13:16;;;;;;;3.40;3.10;;;28.90;76.10;;;;;;5054338;28;20505;-88
2021/06/29 10:15:44;;;;;;;3.77;2.90;;;28.50;77.80;;;;;;5068169;28;20475;-86
2021/06/29 10:18:11;;;;;;;3.33;3.13;;;28.20;78.10;;;;;;5072105;28;20475;-87
2021/06/29 10:21:01;;;;;;;4.40;3.30;;;27.90;78.70;;;;;;5068469;28;20456;-86
2021/06/29 10:23:26;;;;;;;3.70;3.40;;;27.90;80.10;;;;;;5067847;28;20494;-86
2021/06/29 10:25:53;;;;;;;3.40;3.20;;;27.90;79.00;;;;;;5070583;28;20475;-86
2021/06/29 10:28:20;;;;;;;2.90;2.70;;;28.30;78.50;;;;;;5067951;28;20471;-86
2021/06/29 10:30:48;;;;;;;4.33;2.77;;;29.00;75.40;;;;;;5071431;28;20452;-87
2021/06/29 10:33:20;;;;;;;3.27;2.50;;;29.20;74.80;;;;;;5071593;28;20451;-88
2021/06/29 10:35:48;;;;;;;3.17;2.87;;;29.60;74.80;;;;;;5069825;28;20456;-85
2021/06/29 10:38:15;;;;;;;3.77;3.43;;;29.50;73.10;;;;;;5070188;28;20451;-86
2021/06/29 10:40:42;;;;;;;3.90;3.30;;;28.70;76.00;;;;;;5066215;28;20922;-85
2021/06/29 10:43:10;;;;;;;3.60;3.30;;;28.10;78.20;;;;;;5068888;28;20475;-86
2021/06/29 10:45:40;;;;;;;4.27;2.97;;;28.40;78.70;;;;;;5071617;28;20738;-87
2021/06/29 10:48:20;;;;;;;3.70;3.40;;;29.20;76.20;;;;;;5069301;28;20574;-87
2021/06/29 10:50:48;;;;;;;2.87;2.73;;;29.60;75.10;;;;;;5058769;28;20464;-86
2021/06/29 10:53:37;;;;;;;3.57;2.97;;;30.00;73.80;;;;;;5047687;28;20443;-85
2021/06/29 10:56:50;;;;;;;7.30;3.20;;;29.70;72.00;;;;;;5047057;28;20474;-86
2021/06/29 10:59:31;;;;;;;4.67;3.70;;;29.50;74.30;;;;;;5047289;28;20505;-85
2021/06/29 11:02:27;;;;;;;3.50;3.20;;;29.70;72.40;;;;;;5047528;28;20539;-86
2021/06/29 11:05:24;;;;;;;5.43;3.70;;;30.20;71.30;;;;;;5052410;28;20475;-84
2021/06/29 11:07:54;;;;;;;4.33;3.40;;;29.90;69.30;;;;;;5053404;28;20446;-86
2021/06/29 11:10:28;;;;;;;4.77;4.37;;;29.50;71.00;;;;;;5050796;28;20496;-85
2021/06/29 11:13:00;;;;;;;3.43;3.13;;;29.60;71.00;;;;;;5067471;28;20458;-85
2021/06/29 11:15:42;;;;;;;4.13;3.70;;;29.90;69.60;;;;;;5048602;28;20519;-84
2021/06/29 11:18:09;;;;;;;3.70;3.40;;;30.20;69.10;;;;;;5064049;28;20445;-84
2021/06/29 11:20:44;;;;;;;4.20;3.40;;;30.40;67.40;;;;;;5059133;28;20436;-85
2021/06/29 11:23:18;;;;;;;4.90;3.47;;;30.40;65.60;;;;;;5057064;28;20432;-85
2021/06/29 11:26:12;;;;;;;3.03;2.83;;;30.30;65.40;;;;;;5052880;28;20510;-85
2021/06/29 11:29:05;;;;;;;3.43;3.13;;;30.40;64.50;;;;;;5050916;28;20444;-86
2021/06/29 11:31:33;;;;;;;3.70;3.37;;;29.80;65.20;;;;;;5049774;28;20453;-86
2021/06/29 11:34:07;;;;;;;4.13;3.83;;;30.00;66.00;;;;;;5051607;28;20468;-84
2021/06/29 11:36:42;;;;;;;4.60;4.13;;;30.20;64.50;;;;;;5052970;28;20509;-85
2021/06/29 11:39:17;;;;;;;3.10;2.90;;;30.00;65.10;;;;;;5049646;28;20532;-84
2021/06/29 11:42:04;;;;;;;3.70;3.50;;;29.80;63.90;;;;;;5058201;28;20464;-85
2021/06/29 11:44:33;;;;;;;3.07;2.87;;;30.00;63.50;;;;;;5050481;28;20487;-85
2021/06/29 11:47:06;;;;;;;4.83;3.03;;;30.10;64.30;;;;;;5059134;28;20435;-85
2021/06/29 11:49:49;;;;;;;3.30;3.10;;;30.30;63.90;;;;;;5058477;28;20479;-85
2021/06/29 11:52:20;;;;;;;3.27;3.07;;;30.60;61.80;;;;;;5056628;28;20464;-86
2021/06/29 11:55:02;;;;;;;4.10;3.70;;;30.80;59.80;;;;;;5058827;28;20484;-86
2021/06/29 11:57:38;;;;;;;3.93;3.50;;;31.40;59.40;;;;;;5058183;28;20506;-85
2021/06/29 12:00:20;;;;;;;3.70;3.40;;;31.70;58.10;;;;;;5060635;28;20447;-85
2021/06/29 12:03:21;;;;;;;3.57;3.30;;;31.50;57.40;;;;;;5055464;28;20534;-88
2021/06/29 12:05:48;;;;;;;4.53;3.40;;;31.40;56.80;;;;;;5052380;28;20523;-87
2021/06/29 12:08:15;;;;;;;6.40;3.27;;;31.10;57.10;;;;;;5071938;28;20440;-89
2021/06/29 12:10:54;;;;;;;3.53;3.27;;;31.20;57.50;;;;;;5071680;28;20461;-88
2021/06/29 12:13:29;;;;;;;4.60;3.73;;;31.00;58.70;;;;;;5076190;28;20816;-89
2021/06/29 12:16:00;;;;;;;4.00;3.37;;;30.80;59.80;;;;;;5077994;28;20442;-85
2021/06/29 12:18:29;;;;;;;3.70;3.20;;;31.50;58.70;;;;;;5058390;28;20574;-85
2021/06/29 12:21:14;;;;;;;4.10;3.13;;;31.20;59.10;;;;;;5054731;28;20484;-86
2021/06/29 12:23:46;;;;;;;5.30;3.07;;;32.20;57.10;;;;;;5048767;28;20471;-85
2021/06/29 12:26:44;;;;;;;4.23;3.67;;;31.80;58.30;;;;;;5048648;28;20822;-86
2021/06/29 12:29:36;;;;;;;4.53;3.20;;;31.40;57.50;;;;;;5053837;28;20466;-85
2021/06/29 12:32:18;;;;;;;3.63;3.33;;;30.30;59.20;;;;;;5051566;28;20470;-86
2021/06/29 12:34:45;;;;;;;3.77;3.47;;;29.80;61.10;;;;;;5052665;28;20498;-85
2021/06/29 12:37:12;;;;;;;4.23;3.87;;;29.70;61.50;;;;;;5051000;28;20449;-86
2021/06/29 12:39:40;;;;;;;3.67;3.40;;;29.70;62.10;;;;;;5047172;28;20468;-86
2021/06/29 12:42:08;;;;;;;3.97;3.33;;;30.00;62.50;;;;;;5055389;28;20464;-86
2021/06/29 12:44:53;;;;;;;4.20;3.80;;;30.70;61.00;;;;;;5054546;28;20561;-87
2021/06/29 12:47:40;;;;;;;3.90;3.60;;;30.90;59.40;;;;;;5054422;28;20452;-86
2021/06/29 12:50:11;;;;;;;3.90;3.60;;;31.50;57.90;;;;;;5053667;28;20483;-87
2021/06/29 12:52:41;;;;;;;3.50;3.20;;;31.70;56.20;;;;;;5055338;28;20471;-85
2021/06/29 12:55:23;;;;;;;3.97;3.67;;;31.30;57.20;;;;;;5051168;28;20484;-84
2021/06/29 12:58:10;;;;;;;3.90;3.60;;;30.70;57.30;;;;;;5051099;28;20871;-85
2021/06/29 13:00:43;;;;;;;3.90;3.50;;;30.40;57.90;;;;;;5055436;28;20955;-86
2021/06/29 13:03:12;;;;;;;3.70;3.40;;;30.40;59.30;;;;;;5057840;28;20548;-85
2021/06/29 13:05:39;;;;;;;4.10;3.80;;;31.40;58.00;;;;;;5054803;28;20492;-86
2021/06/29 13:08:17;;;;;;;4.10;3.70;;;30.90;58.10;;;;;;5061366;28;20552;-85
2021/06/29 13:10:46;;;;;;;3.67;3.37;;;30.50;59.10;;;;;;5059279;28;20458;-86
2021/06/29 13:13:21;;;;;;;4.40;4.00;;;30.30;58.60;;;;;;5058872;28;20449;-86
2021/06/29 13:15:52;;;;;;;3.50;3.27;;;30.70;58.70;;;;;;5058282;28;20479;-87
2021/06/29 13:22:09;;;;;;;4.07;3.27;;;30.40;58.10;;;;;;5058970;28;20455;-86
2021/06/29 13:28:27;;;;;;;3.00;2.80;;;30.30;58.70;;;;;;5033418;28;20436;-88
2021/06/29 13:39:40;;;;;;;;;;;;;;;;;;;;;
2021/06/29 13:42:28;;;;;;;2.83;2.63;;;29.70;58.40;;;;;;4921988;29;20452;-86
2021/06/29 13:45:08;;;;;;;3.37;3.07;;;30.00;59.20;;;;;;4973367;28;20489;-87
2021/06/29 13:47:54;;;;;;;3.97;2.37;;;30.10;57.10;;;;;;5022532;28;20441;-87
2021/06/29 13:50:31;;;;;;;3.97;3.57;;;30.10;56.50;;;;;;5020064;28;20498;-88
2021/06/29 13:53:00;;;;;;;3.47;3.23;;;30.00;57.20;;;;;;5020414;28;20541;-86
2021/06/29 13:56:28;;;;;;;2.83;2.63;;;29.90;57.60;;;;;;4993571;28;20484;-88
2021/06/29 13:59:09;;;;;;;3.00;2.70;;;29.70;58.40;;;;;;4872912;29;20523;-86
2021/06/29 14:01:57;;;;;;;2.80;2.27;;;29.60;58.60;;;;;;4883742;29;20520;-86
2021/06/29 14:05:02;;;;;;;2.73;2.30;;;29.50;58.40;;;;;;4869600;29;20548;-88
2021/06/29 14:07:48;;;;;;;2.77;2.57;;;29.40;59.00;;;;;;4884536;29;20444;-87
2021/06/29 14:10:39;;;;;;;3.73;3.43;;;29.40;59.70;;;;;;4927873;29;20525;-87
2021/06/29 14:13:28;;;;;;;3.70;3.50;;;29.50;59.80;;;;;;4945306;29;20436;-86
2021/06/29 14:16:09;;;;;;;4.20;3.90;;;29.50;60.80;;;;;;4944384;29;20547;-87
2021/06/29 14:18:44;;;;;;;3.80;3.50;;;29.50;60.40;;;;;;4935418;29;20457;-86
2021/06/29 14:21:31;;;;;;;4.13;3.47;;;29.50;60.60;;;;;;4947858;28;21107;-86
2021/06/29 14:24:19;;;;;;;4.00;3.70;;;29.60;60.70;;;;;;4944873;29;20491;-85
2021/06/29 14:26:46;;;;;;;5.27;4.20;;;29.70;59.70;;;;;;4927972;29;20486;-86
2021/06/29 14:29:13;;;;;;;3.90;3.60;;;29.70;60.20;;;;;;4960483;28;20573;-85
2021/06/29 14:31:42;;;;;;;4.80;4.40;;;29.80;61.20;;;;;;5031376;28;20473;-86
2021/06/29 14:34:15;;;;;;;5.43;5.03;;;30.20;59.80;;;;;;5067055;28;20496;-87
2021/06/29 14:36:51;;;;;;;4.70;4.40;;;29.80;61.00;;;;;;5064659;28;20470;-87
2021/06/29 14:43:54;;;;;;;4.63;4.33;;;29.70;61.20;;;;;;5028133;28;20448;-87
2021/06/29 14:47:28;;;;;;;5.37;4.87;;;29.40;61.90;;;;;;5012042;28;20480;-86
2021/06/29 14:50:14;;;;;;;4.23;3.97;;;29.50;62.90;;;;;;4930191;28;21064;-85
2021/06/29 14:52:42;;;;;;;4.57;4.27;;;29.50;62.30;;;;;;5014769;28;20450;-88